createdAt,value
2019-03-18T00:01:44.903Z,1.43
2019-03-18T00:04:18.099Z,1.40
2019-03-18T00:06:48.743Z,1.47
2019-03-18T00:09:19.066Z,1.30
2019-03-18T00:11:49.610Z,1.70
2019-03-18T00:14:20.771Z,1.47
2019-03-18T00:16:51.861Z,1.77
2019-03-18T00:19:22.891Z,1.53
2019-03-18T00:21:53.162Z,1.80
2019-03-18T00:24:23.146Z,1.80
2019-03-18T00:26:53.701Z,1.57
2019-03-18T00:29:23.833Z,1.63
2019-03-18T00:31:57.498Z,1.30
2019-03-18T00:34:27.818Z,1.80
2019-03-18T00:36:58.145Z,1.60
2019-03-18T00:39:35.100Z,1.60
2019-03-18T00:42:09.632Z,1.77
2019-03-18T00:44:40.002Z,1.10
2019-03-18T00:47:10.605Z,1.83
2019-03-18T00:49:40.946Z,1.57
2019-03-18T00:52:14.426Z,1.70
2019-03-18T00:54:45.313Z,2.07
2019-03-18T00:57:15.661Z,2.53
2019-03-18T00:59:46.754Z,2.40
2019-03-18T01:02:18.093Z,2.73
2019-03-18T01:04:49.513Z,3.47
2019-03-18T01:07:19.777Z,3.93
2019-03-18T01:09:49.786Z,4.60
2019-03-18T01:12:20.445Z,4.47
2019-03-18T01:14:50.840Z,5.63
2019-03-18T01:17:20.823Z,6.37
2019-03-18T01:19:51.283Z,6.53
2019-03-18T01:22:25.168Z,5.40
2019-03-18T01:24:55.843Z,3.30
2019-03-18T01:27:25.977Z,1.97
2019-03-18T01:29:57.037Z,2.80
2019-03-18T01:32:27.279Z,2.00
2019-03-18T01:34:57.942Z,1.80
2019-03-18T01:37:29.434Z,1.67
2019-03-18T01:40:02.752Z,2.00
2019-03-18T01:42:34.549Z,2.43
2019-03-18T01:45:07.673Z,1.87
2019-03-18T01:47:38.586Z,2.00
2019-03-18T01:50:09.113Z,1.80
2019-03-18T01:52:39.067Z,1.80
2019-03-18T01:55:09.920Z,1.90
2019-03-18T01:57:40.085Z,2.47
2019-03-18T02:00:10.832Z,1.83
2019-03-18T02:02:41.748Z,2.10
2019-03-18T02:05:12.239Z,2.27
2019-03-18T02:07:42.215Z,2.07
2019-03-18T02:10:12.379Z,2.53
2019-03-18T02:12:43.474Z,1.90
2019-03-18T02:15:13.339Z,2.00
2019-03-18T02:17:43.496Z,2.30
2019-03-18T02:20:14.744Z,2.80
2019-03-18T02:22:44.840Z,2.57
2019-03-18T02:25:15.208Z,2.27
2019-03-18T02:27:45.376Z,2.30
2019-03-18T02:30:15.840Z,2.10
2019-03-18T02:32:45.680Z,12.93
2019-03-18T02:35:16.380Z,1.90
2019-03-18T02:37:47.783Z,2.70
2019-03-18T02:40:18.203Z,1.90
2019-03-18T02:42:49.144Z,2.17
2019-03-18T02:45:19.629Z,2.10
2019-03-18T02:47:49.733Z,2.20
2019-03-18T02:50:19.518Z,2.03
2019-03-18T02:52:50.560Z,2.10
2019-03-18T02:55:20.699Z,1.77
2019-03-18T02:57:50.992Z,2.07
2019-03-18T03:00:21.277Z,2.43
2019-03-18T03:02:52.967Z,2.00
2019-03-18T03:05:23.902Z,1.90
2019-03-18T03:07:54.674Z,2.00
2019-03-18T03:10:24.958Z,2.00
2019-03-18T03:12:55.953Z,1.70
2019-03-18T03:15:30.047Z,2.67
2019-03-18T03:18:05.244Z,3.00
2019-03-18T03:20:35.827Z,2.63
2019-03-18T03:23:07.518Z,3.60
2019-03-18T03:25:37.465Z,2.90
2019-03-18T03:28:07.467Z,3.50
2019-03-18T03:30:37.749Z,4.67
2019-03-18T03:33:07.616Z,3.80
2019-03-18T03:35:37.458Z,3.70
2019-03-18T03:38:07.612Z,4.33
2019-03-18T03:40:37.883Z,4.20
2019-03-18T03:43:08.504Z,4.60
2019-03-18T03:45:39.012Z,4.40
2019-03-18T03:48:09.401Z,4.60
2019-03-18T03:50:39.552Z,3.20
2019-03-18T03:53:09.197Z,3.57
2019-03-18T03:55:39.860Z,3.90
2019-03-18T03:58:09.717Z,3.07
2019-03-18T04:00:39.951Z,2.80
2019-03-18T04:03:10.477Z,3.00
2019-03-18T04:05:40.784Z,2.77
2019-03-18T04:08:10.647Z,3.30
2019-03-18T04:10:40.595Z,3.13
2019-03-18T04:13:11.941Z,3.23
2019-03-18T04:15:41.990Z,3.27
2019-03-18T04:18:11.929Z,3.70
2019-03-18T04:20:42.129Z,3.87
2019-03-18T04:23:11.849Z,4.10
2019-03-18T04:25:42.039Z,4.73
2019-03-18T04:28:12.359Z,5.77
2019-03-18T04:30:42.112Z,4.73
2019-03-18T04:33:12.110Z,4.33
2019-03-18T04:35:42.712Z,4.23
2019-03-18T04:38:12.985Z,3.67
2019-03-18T04:40:43.196Z,3.00
2019-03-18T04:43:13.153Z,2.80
2019-03-18T04:45:42.745Z,2.17
2019-03-18T04:48:12.723Z,2.37
2019-03-18T04:50:43.714Z,2.10
2019-03-18T04:53:15.508Z,2.10
2019-03-18T04:55:45.888Z,2.17
2019-03-18T04:58:15.631Z,1.80
2019-03-18T05:00:45.697Z,2.23
2019-03-18T05:03:16.923Z,2.00
2019-03-18T05:05:47.938Z,2.60
2019-03-18T05:08:18.035Z,2.30
2019-03-18T05:10:48.639Z,2.40
2019-03-18T05:13:19.054Z,2.27
2019-03-18T05:15:49.034Z,2.23
2019-03-18T05:18:19.092Z,2.00
2019-03-18T05:20:49.850Z,2.57
2019-03-18T05:23:20.229Z,2.70
2019-03-18T05:25:50.418Z,2.80
2019-03-18T05:28:20.495Z,2.83
2019-03-18T05:30:50.492Z,2.60
2019-03-18T05:33:20.306Z,2.87
2019-03-18T05:35:50.590Z,2.50
2019-03-18T05:38:20.676Z,3.10
2019-03-18T05:40:50.935Z,2.97
2019-03-18T05:43:20.861Z,3.27
2019-03-18T05:45:50.978Z,3.30
2019-03-18T05:48:20.993Z,2.97
2019-03-18T05:50:50.935Z,3.37
2019-03-18T05:53:21.592Z,3.37
2019-03-18T05:55:51.698Z,3.37
2019-03-18T05:58:21.835Z,3.60
2019-03-18T06:00:52.743Z,3.40
2019-03-18T06:03:22.890Z,3.67
2019-03-18T06:05:55.590Z,3.57
2019-03-18T06:08:26.717Z,3.30
2019-03-18T06:10:56.715Z,3.50
2019-03-18T06:13:26.668Z,3.87
2019-03-18T06:15:56.723Z,3.60
2019-03-18T06:18:27.115Z,3.10
2019-03-18T06:20:57.179Z,3.30
2019-03-18T06:23:28.100Z,3.40
2019-03-18T06:25:58.677Z,4.00
2019-03-18T06:28:29.231Z,3.70
2019-03-18T06:30:59.169Z,4.43
2019-03-18T06:33:29.337Z,3.37
2019-03-18T06:35:59.394Z,3.40
2019-03-18T06:38:29.368Z,3.60
2019-03-18T06:41:00.032Z,3.83
2019-03-18T06:43:30.344Z,3.57
2019-03-18T06:46:00.438Z,3.70
2019-03-18T06:48:31.033Z,15.83
2019-03-18T06:51:01.983Z,3.70
2019-03-18T06:53:32.020Z,3.77
2019-03-18T06:56:05.142Z,3.40
2019-03-18T06:58:35.599Z,3.63
2019-03-18T07:01:06.069Z,4.70
2019-03-18T07:03:36.241Z,4.10
2019-03-18T07:06:09.618Z,3.73
2019-03-18T07:08:39.531Z,3.10
2019-03-18T07:11:10.132Z,3.33
2019-03-18T07:13:40.110Z,3.40
2019-03-18T07:16:11.291Z,3.43
2019-03-18T07:18:41.851Z,4.10
2019-03-18T07:21:22.018Z,4.53
2019-03-18T07:23:52.699Z,5.17
2019-03-18T07:26:22.849Z,4.33
2019-03-18T07:28:52.751Z,4.50
2019-03-18T07:31:25.151Z,4.67
2019-03-18T07:33:54.786Z,4.60
2019-03-18T07:36:24.374Z,5.30
2019-03-18T07:38:54.458Z,5.10
2019-03-18T07:41:24.469Z,4.70
2019-03-18T07:43:57.376Z,4.10
2019-03-18T07:46:27.114Z,4.73
2019-03-18T07:48:56.744Z,5.00
2019-03-18T07:51:26.288Z,4.33
2019-03-18T07:53:56.885Z,3.67
2019-03-18T07:56:26.417Z,4.30
2019-03-18T07:58:56.115Z,4.53
2019-03-18T08:01:26.369Z,4.30
2019-03-18T08:03:56.125Z,3.80
2019-03-18T08:06:26.191Z,3.67
2019-03-18T08:08:56.445Z,3.67
2019-03-18T08:11:25.982Z,3.60
2019-03-18T08:13:55.961Z,3.60
2019-03-18T08:16:26.183Z,4.00
2019-03-18T08:18:55.820Z,4.03
2019-03-18T08:21:25.562Z,3.67
2019-03-18T08:23:56.445Z,3.87
2019-03-18T08:26:27.303Z,4.20
2019-03-18T08:28:57.198Z,4.40
2019-03-18T08:31:26.819Z,4.67
2019-03-18T08:33:56.582Z,5.40
2019-03-18T08:36:26.796Z,5.90
2019-03-18T08:38:56.606Z,5.63
2019-03-18T08:41:26.408Z,4.90
2019-03-18T08:43:57.059Z,5.00
2019-03-18T08:46:26.821Z,6.30
2019-03-18T08:48:57.039Z,5.47
2019-03-18T08:51:27.381Z,5.53
2019-03-18T08:53:57.465Z,5.70
2019-03-18T08:56:29.648Z,5.30
2019-03-18T08:58:59.781Z,5.50
2019-03-18T09:01:32.044Z,5.03
2019-03-18T09:04:01.234Z,5.80
2019-03-18T09:06:32.408Z,4.80
2019-03-18T09:09:04.490Z,5.17
2019-03-18T09:11:34.282Z,5.93
2019-03-18T09:14:09.720Z,5.40
2019-03-18T09:16:40.341Z,4.10
2019-03-18T09:19:11.210Z,5.23
2019-03-18T09:21:42.361Z,4.70
2019-03-18T09:24:12.981Z,5.53
2019-03-18T09:26:42.512Z,4.60
2019-03-18T09:29:18.098Z,3.97
2019-03-18T09:31:47.680Z,3.73
2019-03-18T09:34:17.362Z,4.90
2019-03-18T09:36:47.471Z,4.17
2019-03-18T09:39:17.746Z,3.77
2019-03-18T09:41:47.768Z,3.70
2019-03-18T09:44:17.642Z,3.33
2019-03-18T09:46:47.241Z,3.10
2019-03-18T09:49:21.902Z,3.23
2019-03-18T09:51:49.096Z,2.90
2019-03-18T09:54:19.319Z,3.07
2019-03-18T09:56:49.712Z,2.70
2019-03-18T09:59:19.787Z,2.57
2019-03-18T10:01:49.505Z,2.33
2019-03-18T10:04:19.458Z,2.77
2019-03-18T10:06:49.420Z,2.03
2019-03-18T10:09:20.982Z,2.67
2019-03-18T10:11:50.983Z,3.00
2019-03-18T10:14:20.633Z,2.80
2019-03-18T10:16:50.984Z,2.47
2019-03-18T10:19:32.763Z,2.83
2019-03-18T10:21:54.600Z,3.63
2019-03-18T10:24:25.109Z,2.27
2019-03-18T10:26:55.640Z,2.80
2019-03-18T10:29:25.497Z,2.60
2019-03-18T10:31:55.558Z,2.53
2019-03-18T10:34:25.484Z,2.30
2019-03-18T10:36:56.336Z,2.50
2019-03-18T10:39:26.940Z,2.33
2019-03-18T10:41:57.014Z,3.13
2019-03-18T10:44:26.916Z,3.43
2019-03-18T10:46:58.220Z,2.73
2019-03-18T10:49:28.062Z,2.23
2019-03-18T10:51:57.941Z,2.77
2019-03-18T10:54:31.216Z,2.60
2019-03-18T10:56:59.732Z,2.20
2019-03-18T10:59:29.458Z,2.60
2019-03-18T11:01:58.980Z,2.53
2019-03-18T11:04:29.281Z,3.27
2019-03-18T11:06:59.378Z,2.97
2019-03-18T11:09:29.063Z,2.90
2019-03-18T11:11:58.800Z,2.73
2019-03-18T11:14:28.896Z,3.03
2019-03-18T11:16:58.987Z,2.73
2019-03-18T11:19:28.818Z,3.40
2019-03-18T11:22:04.208Z,3.43
2019-03-18T11:24:35.329Z,3.47
2019-03-18T11:27:06.494Z,2.70
2019-03-18T11:29:42.509Z,2.60
2019-03-18T11:32:15.409Z,2.50
2019-03-18T11:34:46.076Z,2.97
2019-03-18T11:37:16.523Z,2.50
2019-03-18T11:39:46.348Z,2.40
2019-03-18T11:42:16.411Z,2.70
2019-03-18T11:44:50.147Z,3.17
2019-03-18T11:47:20.288Z,2.90
2019-03-18T11:49:50.007Z,2.60
2019-03-18T11:52:20.034Z,2.57
2019-03-18T11:54:49.792Z,3.30
2019-03-18T11:57:19.396Z,2.40
2019-03-18T11:59:51.023Z,2.40
2019-03-18T12:02:27.871Z,2.93
2019-03-18T12:04:58.753Z,3.10
2019-03-18T12:07:29.969Z,2.90
2019-03-18T12:10:02.604Z,2.13
2019-03-18T12:12:32.244Z,2.27
2019-03-18T12:15:05.976Z,2.13
2019-03-18T12:17:35.728Z,3.17
2019-03-18T12:20:09.594Z,3.10
2019-03-18T12:22:39.677Z,2.57
2019-03-18T12:25:10.969Z,2.50
2019-03-18T12:27:40.730Z,2.10
2019-03-18T12:30:19.743Z,2.30
2019-03-18T12:32:50.164Z,2.60
2019-03-18T12:35:20.452Z,2.40
2019-03-18T12:37:50.321Z,2.30
2019-03-18T12:40:23.073Z,2.40
2019-03-18T12:42:52.822Z,2.73
2019-03-18T12:45:22.858Z,2.77
2019-03-18T12:47:53.122Z,2.23
2019-03-18T12:50:38.570Z,2.13
2019-03-18T12:52:55.228Z,2.40
2019-03-18T12:55:25.190Z,2.43
2019-03-18T12:57:55.588Z,1.90
2019-03-18T13:00:25.755Z,2.13
2019-03-18T13:02:55.603Z,1.60
2019-03-18T13:05:26.888Z,2.10
2019-03-18T13:07:56.927Z,1.90
2019-03-18T13:10:27.034Z,2.23
2019-03-18T13:13:03.581Z,2.30
2019-03-18T13:15:33.814Z,1.53
2019-03-18T13:18:06.835Z,1.57
2019-03-18T13:20:39.658Z,1.47
2019-03-18T13:23:09.664Z,1.50
2019-03-18T13:25:40.109Z,1.50
2019-03-18T13:28:13.861Z,1.60
2019-03-18T13:31:04.175Z,1.00
2019-03-18T13:33:45.036Z,1.43
2019-03-18T13:36:17.379Z,1.27
2019-03-18T13:38:47.729Z,1.10
2019-03-18T13:41:17.492Z,1.30
2019-03-18T13:44:00.667Z,1.33
2019-03-18T13:46:30.960Z,1.23
2019-03-18T13:49:00.716Z,1.23
2019-03-18T13:51:30.739Z,1.13
2019-03-18T13:54:00.506Z,1.20
2019-03-18T13:56:30.524Z,1.17
2019-03-18T13:59:04.897Z,1.40
2019-03-18T14:01:31.941Z,2.17
2019-03-18T14:04:02.472Z,2.90
2019-03-18T14:06:32.647Z,2.70
2019-03-18T14:09:02.901Z,2.40
2019-03-18T14:11:32.838Z,1.97
2019-03-18T14:14:03.446Z,1.53
2019-03-18T14:16:33.747Z,2.30
2019-03-18T14:19:06.706Z,2.37
2019-03-18T14:21:36.701Z,2.00
2019-03-18T14:24:09.645Z,0.70
2019-03-18T14:26:39.754Z,0.50
2019-03-18T14:29:10.549Z,1.23
2019-03-18T14:31:43.908Z,1.40
2019-03-18T14:34:15.519Z,0.90
2019-03-18T14:36:45.578Z,0.93
2019-03-18T14:39:17.891Z,0.90
2019-03-18T14:41:48.223Z,1.07
2019-03-18T14:44:17.921Z,1.30
2019-03-18T14:46:48.283Z,0.80
2019-03-18T14:49:20.079Z,1.00
2019-03-18T14:51:54.946Z,1.07
2019-03-18T14:54:29.813Z,0.77
2019-03-18T14:56:59.871Z,0.70
2019-03-18T14:59:31.001Z,0.80
2019-03-18T15:02:10.762Z,0.73
2019-03-18T15:04:40.248Z,0.70
2019-03-18T15:07:12.593Z,0.80
2019-03-18T15:09:44.676Z,0.80
2019-03-18T15:12:16.844Z,0.80
2019-03-18T15:14:47.343Z,0.80
2019-03-18T15:17:18.338Z,0.70
2019-03-18T15:19:49.904Z,0.90
2019-03-18T15:22:20.820Z,0.80
2019-03-18T15:24:52.943Z,0.70
2019-03-18T15:27:26.778Z,0.60
2019-03-18T15:29:57.636Z,0.60
2019-03-18T15:32:27.660Z,0.60
2019-03-18T15:34:59.039Z,0.73
2019-03-18T15:37:30.442Z,0.60
2019-03-18T15:40:00.726Z,0.70
2019-03-18T15:42:31.437Z,0.60
2019-03-18T15:45:03.453Z,0.60
2019-03-18T15:47:35.787Z,1.20
2019-03-18T15:50:12.881Z,1.20
2019-03-18T15:52:42.283Z,0.80
2019-03-18T15:55:13.562Z,0.80
2019-03-18T15:57:47.796Z,0.80
2019-03-18T16:00:23.210Z,0.90
2019-03-18T16:02:53.351Z,1.70
2019-03-18T16:05:23.867Z,1.47
2019-03-18T16:07:55.124Z,1.35
2019-03-18T16:10:25.564Z,1.10
2019-03-18T16:12:56.278Z,1.40
2019-03-18T16:15:26.973Z,1.80
2019-03-18T16:17:58.383Z,1.40
2019-03-18T16:20:29.042Z,2.17
2019-03-18T16:22:59.368Z,0.97
2019-03-18T16:25:30.023Z,1.03
2019-03-18T16:28:00.319Z,0.60
2019-03-18T16:30:39.704Z,0.70
2019-03-18T16:33:17.219Z,0.80
2019-03-18T16:35:47.849Z,1.00
2019-03-18T16:38:18.209Z,0.60
2019-03-18T16:40:48.921Z,1.17
2019-03-18T16:43:22.510Z,0.90
2019-03-18T16:45:52.935Z,0.90
2019-03-18T16:48:28.774Z,1.10
2019-03-18T16:51:00.399Z,0.93
2019-03-18T16:53:31.081Z,1.00
2019-03-18T16:56:05.643Z,1.00
2019-03-18T16:58:36.140Z,0.83
2019-03-18T17:01:11.485Z,1.30
2019-03-18T17:03:41.931Z,0.80
2019-03-18T17:06:15.468Z,3.20
2019-03-18T17:08:48.389Z,1.00
2019-03-18T17:11:18.842Z,1.17
2019-03-18T17:13:49.642Z,1.40
2019-03-18T17:16:21.773Z,1.13
2019-03-18T17:18:52.252Z,0.90
2019-03-18T17:21:22.624Z,0.97
2019-03-18T17:23:53.256Z,1.20
2019-03-18T17:26:23.839Z,1.77
2019-03-18T17:28:54.212Z,1.50
2019-03-18T17:31:31.808Z,0.90
2019-03-18T17:34:03.531Z,1.40
2019-03-18T17:36:33.911Z,1.30
2019-03-18T17:39:04.502Z,1.13
2019-03-18T17:41:34.813Z,1.00
2019-03-18T17:44:07.711Z,0.90
2019-03-18T17:46:40.310Z,1.23
2019-03-18T17:49:10.629Z,1.20
2019-03-18T17:51:43.699Z,1.47
2019-03-18T17:54:17.076Z,1.40
2019-03-18T17:56:47.863Z,1.90
2019-03-18T17:59:20.392Z,1.60
2019-03-18T18:01:50.919Z,1.40
2019-03-18T18:04:25.465Z,1.10
2019-03-18T18:06:56.302Z,1.17
2019-03-18T18:09:27.301Z,1.03
2019-03-18T18:12:00.765Z,1.30
2019-03-18T18:14:34.229Z,1.57
2019-03-18T18:17:07.878Z,1.40
2019-03-18T18:19:38.585Z,1.97
2019-03-18T18:22:16.211Z,1.40
2019-03-18T18:24:56.046Z,1.53
2019-03-18T18:27:26.678Z,1.33
2019-03-18T18:29:57.114Z,1.63
2019-03-18T18:32:32.941Z,1.30
2019-03-18T18:35:04.584Z,1.80
2019-03-18T18:37:36.093Z,1.67
2019-03-18T18:40:08.558Z,1.10
2019-03-18T18:42:40.267Z,1.70
2019-03-18T18:45:14.240Z,1.70
2019-03-18T18:47:46.957Z,1.70
2019-03-18T18:50:17.470Z,1.33
2019-03-18T18:52:49.629Z,1.57
2019-03-18T18:55:20.192Z,1.90
2019-03-18T18:57:50.390Z,1.70
2019-03-18T19:00:29.300Z,2.17
2019-03-18T19:03:00.725Z,2.30
2019-03-18T19:05:36.654Z,3.50
2019-03-18T19:08:11.210Z,2.40
2019-03-18T19:10:45.708Z,3.37
2019-03-18T19:13:22.996Z,4.60
2019-03-18T19:15:55.968Z,4.20
2019-03-18T19:18:37.714Z,2.93
2019-03-18T19:21:01.989Z,2.63
2019-03-18T19:23:38.031Z,4.10
2019-03-18T19:26:19.264Z,3.70
2019-03-18T19:28:52.850Z,2.13
2019-03-18T19:31:37.777Z,2.10
2019-03-18T19:34:44.260Z,2.10
2019-03-18T19:37:17.226Z,1.80
2019-03-18T19:39:47.661Z,2.17
2019-03-18T19:43:04.974Z,2.27
2019-03-18T19:45:36.306Z,3.00
2019-03-18T19:48:12.285Z,2.90
2019-03-18T19:50:45.378Z,1.90
2019-03-18T19:53:17.295Z,2.30
2019-03-18T19:55:52.734Z,2.83
2019-03-18T19:58:22.804Z,3.07
2019-03-18T20:00:53.921Z,3.10
2019-03-18T20:03:28.318Z,2.30
2019-03-18T20:05:58.960Z,2.23
2019-03-18T20:08:38.995Z,2.40
2019-03-18T20:14:44.961Z,2.63
2019-03-18T20:17:16.219Z,4.00
2019-03-18T20:19:46.852Z,2.90
2019-03-18T20:23:05.247Z,2.70
2019-03-18T20:25:51.128Z,2.13
2019-03-18T20:28:25.179Z,3.00
2019-03-18T20:30:59.592Z,2.97
2019-03-18T20:33:29.878Z,3.20
2019-03-18T20:36:01.064Z,7.50
2019-03-18T20:38:39.550Z,4.70
2019-03-18T20:41:10.726Z,5.00
2019-03-18T20:43:41.927Z,4.90
2019-03-18T20:46:12.898Z,4.37
2019-03-18T20:49:30.286Z,4.60
2019-03-18T20:52:00.915Z,8.40
2019-03-18T20:54:34.527Z,8.40
2019-03-18T20:57:05.851Z,7.77
2019-03-18T20:59:39.215Z,6.80
2019-03-18T21:02:13.033Z,6.87
2019-03-18T21:04:43.920Z,6.80
2019-03-18T21:07:17.059Z,5.27
2019-03-18T21:09:50.472Z,6.20
2019-03-18T21:12:22.755Z,5.30
2019-03-18T21:14:54.386Z,6.57
2019-03-18T21:17:37.821Z,4.40
2019-03-18T21:20:12.069Z,5.60
2019-03-18T21:22:44.209Z,3.67
2019-03-18T21:25:20.986Z,3.97
2019-03-18T21:27:51.253Z,3.47
2019-03-18T21:30:22.081Z,3.77
2019-03-18T21:32:52.793Z,3.93
2019-03-18T21:35:23.566Z,3.63
2019-03-18T21:37:55.504Z,4.43
2019-03-18T21:40:25.630Z,3.17
2019-03-18T21:42:55.639Z,3.30
2019-03-18T21:45:26.883Z,4.00
2019-03-18T21:47:57.500Z,4.97
2019-03-18T21:50:27.528Z,7.33
2019-03-18T21:52:57.981Z,4.60
2019-03-18T21:55:28.299Z,4.77
2019-03-18T21:57:58.842Z,5.63
2019-03-18T22:00:29.238Z,4.10
2019-03-18T22:02:59.713Z,4.60
2019-03-18T22:05:29.434Z,5.67
2019-03-18T22:07:58.990Z,5.60
2019-03-18T22:10:32.962Z,6.33
2019-03-18T22:13:05.452Z,5.80
2019-03-18T22:15:35.058Z,5.80
2019-03-18T22:18:08.022Z,5.67
2019-03-18T22:20:37.866Z,4.30
2019-03-18T22:23:07.862Z,5.03
2019-03-18T22:25:37.918Z,4.93
2019-03-18T22:28:07.647Z,4.73
2019-03-18T22:30:37.477Z,5.77
2019-03-18T22:33:07.505Z,5.37
2019-03-18T22:35:37.438Z,6.10
2019-03-18T22:38:07.354Z,6.17
2019-03-18T22:40:37.889Z,5.43
2019-03-18T22:43:07.534Z,5.10
2019-03-18T22:45:38.203Z,6.17
2019-03-18T22:48:10.434Z,5.27
2019-03-18T22:50:40.480Z,5.80
2019-03-18T22:53:10.156Z,6.20
2019-03-18T22:55:39.838Z,7.87
2019-03-18T22:58:10.134Z,7.97
2019-03-18T23:01:06.215Z,7.00
2019-03-18T23:03:36.745Z,7.13
2019-03-18T23:06:24.900Z,6.70
2019-03-18T23:08:58.476Z,6.83
2019-03-18T23:11:30.100Z,7.00
2019-03-18T23:14:00.819Z,6.70
2019-03-18T23:16:35.924Z,7.50
2019-03-18T23:19:08.323Z,6.50
2019-03-18T23:21:38.561Z,6.87
2019-03-18T23:24:08.490Z,6.53
2019-03-18T23:26:38.073Z,6.10
2019-03-18T23:29:08.189Z,5.57
2019-03-18T23:31:37.902Z,6.30
2019-03-18T23:34:07.419Z,6.20
2019-03-18T23:36:37.124Z,5.23
2019-03-18T23:39:09.785Z,5.80
2019-03-18T23:41:39.787Z,6.20
2019-03-18T23:44:09.359Z,6.33
2019-03-18T23:46:39.627Z,7.13
2019-03-18T23:49:09.680Z,7.00
2019-03-18T23:51:39.532Z,7.10
2019-03-18T23:54:10.355Z,6.63
2019-03-18T23:56:40.070Z,6.40
2019-03-18T23:59:09.617Z,6.70
